sensor_id;sensor_type;location;lat;lon;timestamp;P1;durP1;ratioP1;P2;durP2;ratioP2
30378;SDS011;17168;49.164;9.060;2023-04-25T00:00:54;4.50;;;2.50;;
30378;SDS011;17168;49.164;9.060;2023-04-25T00:03:26;3.28;;;2.00;;
30378;SDS011;17168;49.164;9.060;2023-04-25T00:05:58;4.05;;;2.42;;
30378;SDS011;17168;49.164;9.060;2023-04-25T00:08:36;4.38;;;3.05;;
30378;SDS011;17168;49.164;9.060;2023-04-25T00:11:08;4.57;;;2.25;;
30378;SDS011;17168;49.164;9.060;2023-04-25T00:13:40;4.35;;;3.13;;
30378;SDS011;17168;49.164;9.060;2023-04-25T00:16:13;3.47;;;1.80;;
30378;SDS011;17168;49.164;9.060;2023-04-25T00:18:47;2.50;;;1.20;;
30378;SDS011;17168;49.164;9.060;2023-04-25T00:21:22;2.65;;;1.67;;
30378;SDS011;17168;49.164;9.060;2023-04-25T00:23:58;2.50;;;1.35;;
30378;SDS011;17168;49.164;9.060;2023-04-25T00:26:31;4.30;;;2.10;;
30378;SDS011;17168;49.164;9.060;2023-04-25T00:29:03;2.40;;;1.35;;
30378;SDS011;17168;49.164;9.060;2023-04-25T00:31:35;2.78;;;1.38;;
30378;SDS011;17168;49.164;9.060;2023-04-25T00:34:07;3.25;;;1.38;;
30378;SDS011;17168;49.164;9.060;2023-04-25T00:36:39;3.20;;;1.40;;
30378;SDS011;17168;49.164;9.060;2023-04-25T00:39:14;2.95;;;1.60;;
30378;SDS011;17168;49.164;9.060;2023-04-25T00:41:46;3.25;;;1.35;;
30378;SDS011;17168;49.164;9.060;2023-04-25T00:44:19;3.40;;;1.55;;
30378;SDS011;17168;49.164;9.060;2023-04-25T00:46:52;3.58;;;2.10;;
30378;SDS011;17168;49.164;9.060;2023-04-25T00:49:25;3.47;;;2.20;;
30378;SDS011;17168;49.164;9.060;2023-04-25T00:51:57;4.82;;;2.28;;
30378;SDS011;17168;49.164;9.060;2023-04-25T00:54:32;3.33;;;2.08;;
30378;SDS011;17168;49.164;9.060;2023-04-25T00:57:04;5.45;;;2.42;;
30378;SDS011;17168;49.164;9.060;2023-04-25T00:59:37;3.58;;;1.70;;
30378;SDS011;17168;49.164;9.060;2023-04-25T01:02:10;4.68;;;2.47;;
30378;SDS011;17168;49.164;9.060;2023-04-25T01:04:42;5.45;;;2.15;;
30378;SDS011;17168;49.164;9.060;2023-04-25T01:07:14;3.50;;;2.28;;
30378;SDS011;17168;49.164;9.060;2023-04-25T01:09:50;3.65;;;2.15;;
30378;SDS011;17168;49.164;9.060;2023-04-25T01:12:23;3.33;;;1.73;;
30378;SDS011;17168;49.164;9.060;2023-04-25T01:14:55;4.35;;;2.60;;
30378;SDS011;17168;49.164;9.060;2023-04-25T01:17:28;4.43;;;2.40;;
30378;SDS011;17168;49.164;9.060;2023-04-25T01:20:01;4.03;;;1.77;;
30378;SDS011;17168;49.164;9.060;2023-04-25T01:22:37;6.47;;;2.47;;
30378;SDS011;17168;49.164;9.060;2023-04-25T01:25:09;2.60;;;1.25;;
30378;SDS011;17168;49.164;9.060;2023-04-25T01:27:42;3.45;;;2.03;;
30378;SDS011;17168;49.164;9.060;2023-04-25T01:30:14;4.75;;;2.85;;
30378;SDS011;17168;49.164;9.060;2023-04-25T01:32:47;4.25;;;2.03;;
30378;SDS011;17168;49.164;9.060;2023-04-25T01:35:19;5.28;;;2.85;;
30378;SDS011;17168;49.164;9.060;2023-04-25T01:37:54;3.42;;;2.03;;
30378;SDS011;17168;49.164;9.060;2023-04-25T01:40:26;4.88;;;2.92;;
30378;SDS011;17168;49.164;9.060;2023-04-25T01:42:59;5.65;;;3.00;;
30378;SDS011;17168;49.164;9.060;2023-04-25T01:45:31;4.07;;;2.38;;
30378;SDS011;17168;49.164;9.060;2023-04-25T01:48:04;3.72;;;2.40;;
30378;SDS011;17168;49.164;9.060;2023-04-25T01:50:36;3.80;;;2.50;;
30378;SDS011;17168;49.164;9.060;2023-04-25T01:53:12;4.53;;;2.53;;
30378;SDS011;17168;49.164;9.060;2023-04-25T01:55:45;4.28;;;2.25;;
30378;SDS011;17168;49.164;9.060;2023-04-25T01:58:17;3.97;;;2.75;;
30378;SDS011;17168;49.164;9.060;2023-04-25T02:00:49;4.45;;;2.70;;
30378;SDS011;17168;49.164;9.060;2023-04-25T02:03:21;3.80;;;2.20;;
30378;SDS011;17168;49.164;9.060;2023-04-25T02:05:53;4.03;;;1.77;;
30378;SDS011;17168;49.164;9.060;2023-04-25T02:08:28;4.40;;;2.50;;
30378;SDS011;17168;49.164;9.060;2023-04-25T02:11:01;5.32;;;2.33;;
30378;SDS011;17168;49.164;9.060;2023-04-25T02:13:34;5.57;;;3.40;;
30378;SDS011;17168;49.164;9.060;2023-04-25T02:16:06;4.60;;;3.08;;
30378;SDS011;17168;49.164;9.060;2023-04-25T02:18:39;4.88;;;2.42;;
30378;SDS011;17168;49.164;9.060;2023-04-25T02:21:11;4.30;;;2.45;;
30378;SDS011;17168;49.164;9.060;2023-04-25T02:23:45;4.32;;;2.72;;
30378;SDS011;17168;49.164;9.060;2023-04-25T02:26:20;5.15;;;2.33;;
30378;SDS011;17168;49.164;9.060;2023-04-25T02:28:52;3.92;;;2.35;;
30378;SDS011;17168;49.164;9.060;2023-04-25T02:31:24;3.97;;;2.33;;
30378;SDS011;17168;49.164;9.060;2023-04-25T02:33:57;3.42;;;2.00;;
30378;SDS011;17168;49.164;9.060;2023-04-25T02:36:29;4.07;;;2.20;;
30378;SDS011;17168;49.164;9.060;2023-04-25T02:39:06;4.15;;;2.22;;
30378;SDS011;17168;49.164;9.060;2023-04-25T02:41:38;3.95;;;1.90;;
30378;SDS011;17168;49.164;9.060;2023-04-25T02:44:10;3.85;;;1.98;;
30378;SDS011;17168;49.164;9.060;2023-04-25T02:46:42;3.78;;;2.10;;
30378;SDS011;17168;49.164;9.060;2023-04-25T02:49:14;3.67;;;2.15;;
30378;SDS011;17168;49.164;9.060;2023-04-25T02:51:46;5.43;;;3.10;;
30378;SDS011;17168;49.164;9.060;2023-04-25T02:54:21;3.97;;;2.45;;
30378;SDS011;17168;49.164;9.060;2023-04-25T02:56:53;4.20;;;2.42;;
30378;SDS011;17168;49.164;9.060;2023-04-25T02:59:25;4.68;;;2.63;;
30378;SDS011;17168;49.164;9.060;2023-04-25T03:01:58;4.18;;;2.35;;
30378;SDS011;17168;49.164;9.060;2023-04-25T03:04:30;6.35;;;3.13;;
30378;SDS011;17168;49.164;9.060;2023-04-25T03:07:03;5.30;;;3.15;;
30378;SDS011;17168;49.164;9.060;2023-04-25T03:09:38;3.92;;;3.10;;
30378;SDS011;17168;49.164;9.060;2023-04-25T03:12:10;4.72;;;2.50;;
30378;SDS011;17168;49.164;9.060;2023-04-25T03:14:42;5.10;;;2.60;;
30378;SDS011;17168;49.164;9.060;2023-04-25T03:17:14;4.60;;;2.50;;
30378;SDS011;17168;49.164;9.060;2023-04-25T03:19:47;4.90;;;2.60;;
30378;SDS011;17168;49.164;9.060;2023-04-25T03:22:19;4.50;;;2.85;;
30378;SDS011;17168;49.164;9.060;2023-04-25T03:24:54;7.18;;;3.13;;
30378;SDS011;17168;49.164;9.060;2023-04-25T03:27:26;4.72;;;2.58;;
30378;SDS011;17168;49.164;9.060;2023-04-25T03:29:58;5.18;;;2.20;;
30378;SDS011;17168;49.164;9.060;2023-04-25T03:32:30;4.97;;;3.15;;
30378;SDS011;17168;49.164;9.060;2023-04-25T03:35:03;5.75;;;3.20;;
30378;SDS011;17168;49.164;9.060;2023-04-25T03:37:36;5.03;;;2.33;;
30378;SDS011;17168;49.164;9.060;2023-04-25T03:40:11;5.65;;;2.42;;
30378;SDS011;17168;49.164;9.060;2023-04-25T03:42:43;5.10;;;3.08;;
30378;SDS011;17168;49.164;9.060;2023-04-25T03:45:15;4.97;;;2.47;;
30378;SDS011;17168;49.164;9.060;2023-04-25T03:47:47;6.72;;;3.45;;
30378;SDS011;17168;49.164;9.060;2023-04-25T03:50:20;5.72;;;3.15;;
30378;SDS011;17168;49.164;9.060;2023-04-25T03:52:52;5.35;;;3.40;;
30378;SDS011;17168;49.164;9.060;2023-04-25T03:55:26;6.22;;;3.50;;
30378;SDS011;17168;49.164;9.060;2023-04-25T03:57:58;5.28;;;3.08;;
30378;SDS011;17168;49.164;9.060;2023-04-25T04:00:31;8.57;;;3.60;;
30378;SDS011;17168;49.164;9.060;2023-04-25T04:03:03;5.35;;;2.90;;
30378;SDS011;17168;49.164;9.060;2023-04-25T04:05:36;5.85;;;3.70;;
30378;SDS011;17168;49.164;9.060;2023-04-25T04:08:08;5.80;;;3.67;;
30378;SDS011;17168;49.164;9.060;2023-04-25T04:10:43;7.38;;;4.00;;
30378;SDS011;17168;49.164;9.060;2023-04-25T04:13:15;7.30;;;4.13;;
30378;SDS011;17168;49.164;9.060;2023-04-25T04:15:47;7.18;;;3.55;;
30378;SDS011;17168;49.164;9.060;2023-04-25T04:18:19;6.50;;;4.03;;
30378;SDS011;17168;49.164;9.060;2023-04-25T04:20:51;6.97;;;4.90;;
30378;SDS011;17168;49.164;9.060;2023-04-25T04:23:23;9.35;;;4.40;;
30378;SDS011;17168;49.164;9.060;2023-04-25T04:25:58;7.32;;;4.40;;
30378;SDS011;17168;49.164;9.060;2023-04-25T04:28:31;7.10;;;3.45;;
30378;SDS011;17168;49.164;9.060;2023-04-25T04:31:03;4.97;;;3.15;;
30378;SDS011;17168;49.164;9.060;2023-04-25T04:33:35;7.25;;;3.90;;
30378;SDS011;17168;49.164;9.060;2023-04-25T04:36:08;6.80;;;3.85;;
30378;SDS011;17168;49.164;9.060;2023-04-25T04:38:41;6.72;;;3.75;;
30378;SDS011;17168;49.164;9.060;2023-04-25T04:41:16;5.93;;;3.92;;
30378;SDS011;17168;49.164;9.060;2023-04-25T04:43:48;8.90;;;4.50;;
30378;SDS011;17168;49.164;9.060;2023-04-25T04:46:20;7.80;;;4.82;;
30378;SDS011;17168;49.164;9.060;2023-04-25T04:48:53;8.55;;;5.13;;
30378;SDS011;17168;49.164;9.060;2023-04-25T04:51:25;8.27;;;4.63;;
30378;SDS011;17168;49.164;9.060;2023-04-25T04:53:58;7.55;;;4.40;;
30378;SDS011;17168;49.164;9.060;2023-04-25T04:56:36;6.25;;;3.97;;
30378;SDS011;17168;49.164;9.060;2023-04-25T04:59:08;6.60;;;4.10;;
30378;SDS011;17168;49.164;9.060;2023-04-25T05:01:40;8.45;;;4.82;;
30378;SDS011;17168;49.164;9.060;2023-04-25T05:04:12;8.10;;;4.88;;
30378;SDS011;17168;49.164;9.060;2023-04-25T05:06:44;7.70;;;4.32;;
30378;SDS011;17168;49.164;9.060;2023-04-25T05:09:19;8.95;;;4.90;;
30378;SDS011;17168;49.164;9.060;2023-04-25T05:11:54;9.13;;;4.97;;
30378;SDS011;17168;49.164;9.060;2023-04-25T05:14:26;10.43;;;5.00;;
30378;SDS011;17168;49.164;9.060;2023-04-25T05:16:58;8.25;;;4.88;;
30378;SDS011;17168;49.164;9.060;2023-04-25T05:19:31;8.10;;;4.57;;
30378;SDS011;17168;49.164;9.060;2023-04-25T05:22:04;6.78;;;4.30;;
30378;SDS011;17168;49.164;9.060;2023-04-25T05:24:36;7.78;;;4.53;;
30378;SDS011;17168;49.164;9.060;2023-04-25T05:27:10;8.65;;;4.78;;
30378;SDS011;17168;49.164;9.060;2023-04-25T05:29:42;7.13;;;3.80;;
30378;SDS011;17168;49.164;9.060;2023-04-25T05:32:15;7.85;;;4.57;;
30378;SDS011;17168;49.164;9.060;2023-04-25T05:34:47;7.07;;;4.07;;
30378;SDS011;17168;49.164;9.060;2023-04-25T05:37:19;8.15;;;4.47;;
30378;SDS011;17168;49.164;9.060;2023-04-25T05:39:51;8.90;;;4.80;;
30378;SDS011;17168;49.164;9.060;2023-04-25T05:42:27;10.48;;;5.22;;
30378;SDS011;17168;49.164;9.060;2023-04-25T05:44:59;8.23;;;4.38;;
30378;SDS011;17168;49.164;9.060;2023-04-25T05:47:32;8.75;;;4.88;;
30378;SDS011;17168;49.164;9.060;2023-04-25T05:50:04;8.65;;;4.53;;
30378;SDS011;17168;49.164;9.060;2023-04-25T05:52:44;9.15;;;4.78;;
30378;SDS011;17168;49.164;9.060;2023-04-25T05:55:16;11.70;;;5.68;;
30378;SDS011;17168;49.164;9.060;2023-04-25T05:57:50;9.23;;;4.45;;
30378;SDS011;17168;49.164;9.060;2023-04-25T06:00:22;8.27;;;5.28;;
30378;SDS011;17168;49.164;9.060;2023-04-25T06:02:55;8.90;;;5.25;;
30378;SDS011;17168;49.164;9.060;2023-04-25T06:05:28;10.18;;;5.55;;
30378;SDS011;17168;49.164;9.060;2023-04-25T06:08:00;9.63;;;5.10;;
30378;SDS011;17168;49.164;9.060;2023-04-25T06:10:32;10.68;;;6.45;;
30378;SDS011;17168;49.164;9.060;2023-04-25T06:13:11;9.57;;;5.15;;
30378;SDS011;17168;49.164;9.060;2023-04-25T06:15:43;9.00;;;5.25;;
30378;SDS011;17168;49.164;9.060;2023-04-25T06:18:16;8.32;;;4.38;;
30378;SDS011;17168;49.164;9.060;2023-04-25T06:20:54;8.00;;;4.78;;
30378;SDS011;17168;49.164;9.060;2023-04-25T06:23:26;7.13;;;4.47;;
30378;SDS011;17168;49.164;9.060;2023-04-25T06:25:59;11.02;;;5.22;;
30378;SDS011;17168;49.164;9.060;2023-04-25T06:28:44;8.57;;;4.47;;
30378;SDS011;17168;49.164;9.060;2023-04-25T06:31:16;8.15;;;4.88;;
30378;SDS011;17168;49.164;9.060;2023-04-25T06:33:48;7.32;;;4.53;;
30378;SDS011;17168;49.164;9.060;2023-04-25T06:36:21;8.63;;;4.85;;
30378;SDS011;17168;49.164;9.060;2023-04-25T06:38:56;7.25;;;4.45;;
30378;SDS011;17168;49.164;9.060;2023-04-25T06:41:28;8.35;;;4.55;;
30378;SDS011;17168;49.164;9.060;2023-04-25T06:44:03;7.22;;;4.60;;
30378;SDS011;17168;49.164;9.060;2023-04-25T06:46:35;6.43;;;4.10;;
30378;SDS011;17168;49.164;9.060;2023-04-25T06:49:07;7.50;;;4.88;;
30378;SDS011;17168;49.164;9.060;2023-04-25T06:51:40;12.85;;;4.53;;
30378;SDS011;17168;49.164;9.060;2023-04-25T06:54:12;9.57;;;5.10;;
30378;SDS011;17168;49.164;9.060;2023-04-25T06:56:44;9.30;;;5.00;;
30378;SDS011;17168;49.164;9.060;2023-04-25T06:59:19;7.80;;;4.70;;
30378;SDS011;17168;49.164;9.060;2023-04-25T07:01:51;8.50;;;5.28;;
30378;SDS011;17168;49.164;9.060;2023-04-25T07:04:23;8.02;;;4.45;;
30378;SDS011;17168;49.164;9.060;2023-04-25T07:06:56;8.68;;;4.93;;
30378;SDS011;17168;49.164;9.060;2023-04-25T07:09:35;7.35;;;4.32;;
30378;SDS011;17168;49.164;9.060;2023-04-25T07:12:07;9.20;;;4.57;;
30378;SDS011;17168;49.164;9.060;2023-04-25T07:14:44;8.18;;;5.25;;
30378;SDS011;17168;49.164;9.060;2023-04-25T07:17:16;8.95;;;5.50;;
30378;SDS011;17168;49.164;9.060;2023-04-25T07:19:48;8.32;;;4.82;;
30378;SDS011;17168;49.164;9.060;2023-04-25T07:22:20;11.95;;;6.07;;
30378;SDS011;17168;49.164;9.060;2023-04-25T07:24:52;9.13;;;5.57;;
30378;SDS011;17168;49.164;9.060;2023-04-25T07:27:24;8.43;;;5.75;;
30378;SDS011;17168;49.164;9.060;2023-04-25T07:30:02;10.60;;;4.82;;
30378;SDS011;17168;49.164;9.060;2023-04-25T07:32:35;7.88;;;5.05;;
30378;SDS011;17168;49.164;9.060;2023-04-25T07:35:11;9.75;;;4.93;;
30378;SDS011;17168;49.164;9.060;2023-04-25T07:37:46;8.23;;;5.13;;
30378;SDS011;17168;49.164;9.060;2023-04-25T07:40:27;8.35;;;5.80;;
30378;SDS011;17168;49.164;9.060;2023-04-25T07:42:59;9.75;;;6.38;;
30378;SDS011;17168;49.164;9.060;2023-04-25T07:45:34;9.43;;;5.28;;
30378;SDS011;17168;49.164;9.060;2023-04-25T07:48:06;12.45;;;5.78;;
30378;SDS011;17168;49.164;9.060;2023-04-25T07:50:38;10.45;;;7.22;;
30378;SDS011;17168;49.164;9.060;2023-04-25T07:53:10;13.52;;;6.60;;
30378;SDS011;17168;49.164;9.060;2023-04-25T07:55:42;11.20;;;6.97;;
30378;SDS011;17168;49.164;9.060;2023-04-25T07:58:15;11.95;;;6.57;;
30378;SDS011;17168;49.164;9.060;2023-04-25T08:00:55;10.85;;;6.25;;
30378;SDS011;17168;49.164;9.060;2023-04-25T08:03:27;13.45;;;6.72;;
30378;SDS011;17168;49.164;9.060;2023-04-25T08:05:59;10.68;;;6.80;;
30378;SDS011;17168;49.164;9.060;2023-04-25T08:08:35;11.43;;;6.82;;
30378;SDS011;17168;49.164;9.060;2023-04-25T08:11:07;11.20;;;6.97;;
30378;SDS011;17168;49.164;9.060;2023-04-25T08:13:40;9.07;;;6.38;;
30378;SDS011;17168;49.164;9.060;2023-04-25T08:16:14;10.20;;;6.40;;
30378;SDS011;17168;49.164;9.060;2023-04-25T08:18:50;15.07;;;7.22;;
30378;SDS011;17168;49.164;9.060;2023-04-25T08:21:23;11.88;;;6.82;;
30378;SDS011;17168;49.164;9.060;2023-04-25T08:23:55;10.75;;;6.70;;
30378;SDS011;17168;49.164;9.060;2023-04-25T08:26:31;12.32;;;6.70;;
30378;SDS011;17168;49.164;9.060;2023-04-25T08:29:05;11.55;;;6.95;;
30378;SDS011;17168;49.164;9.060;2023-04-25T08:31:40;13.38;;;6.80;;
30378;SDS011;17168;49.164;9.060;2023-04-25T08:34:12;12.02;;;6.05;;
30378;SDS011;17168;49.164;9.060;2023-04-25T08:36:44;10.55;;;6.25;;
30378;SDS011;17168;49.164;9.060;2023-04-25T08:39:16;9.07;;;5.88;;
30378;SDS011;17168;49.164;9.060;2023-04-25T08:41:52;9.52;;;6.43;;
30378;SDS011;17168;49.164;9.060;2023-04-25T08:44:24;8.93;;;5.50;;
30378;SDS011;17168;49.164;9.060;2023-04-25T08:47:00;10.40;;;5.32;;
30378;SDS011;17168;49.164;9.060;2023-04-25T08:49:34;9.68;;;5.70;;
30378;SDS011;17168;49.164;9.060;2023-04-25T08:52:07;8.82;;;5.38;;
30378;SDS011;17168;49.164;9.060;2023-04-25T08:54:42;9.07;;;5.60;;
30378;SDS011;17168;49.164;9.060;2023-04-25T08:57:18;9.85;;;6.63;;
30378;SDS011;17168;49.164;9.060;2023-04-25T08:59:51;10.00;;;5.43;;
30378;SDS011;17168;49.164;9.060;2023-04-25T09:02:26;10.15;;;6.40;;
30378;SDS011;17168;49.164;9.060;2023-04-25T09:05:02;11.95;;;6.13;;
30378;SDS011;17168;49.164;9.060;2023-04-25T09:07:35;11.30;;;6.05;;
30378;SDS011;17168;49.164;9.060;2023-04-25T09:10:08;9.50;;;5.93;;
30378;SDS011;17168;49.164;9.060;2023-04-25T09:12:42;7.57;;;4.18;;
30378;SDS011;17168;49.164;9.060;2023-04-25T09:15:15;9.10;;;4.65;;
30378;SDS011;17168;49.164;9.060;2023-04-25T09:17:59;6.40;;;3.92;;
30378;SDS011;17168;49.164;9.060;2023-04-25T09:20:41;5.13;;;3.13;;
30378;SDS011;17168;49.164;9.060;2023-04-25T09:23:17;7.18;;;4.28;;
30378;SDS011;17168;49.164;9.060;2023-04-25T09:25:52;5.32;;;2.53;;
30378;SDS011;17168;49.164;9.060;2023-04-25T09:28:40;5.13;;;2.35;;
30378;SDS011;17168;49.164;9.060;2023-04-25T09:31:12;3.83;;;2.08;;
30378;SDS011;17168;49.164;9.060;2023-04-25T09:34:00;5.22;;;2.45;;
30378;SDS011;17168;49.164;9.060;2023-04-25T09:36:33;4.93;;;2.75;;
30378;SDS011;17168;49.164;9.060;2023-04-25T09:39:06;3.42;;;1.70;;
30378;SDS011;17168;49.164;9.060;2023-04-25T09:41:46;4.60;;;3.22;;
30378;SDS011;17168;49.164;9.060;2023-04-25T09:44:22;4.45;;;2.17;;
30378;SDS011;17168;49.164;9.060;2023-04-25T09:46:55;6.45;;;3.13;;
30378;SDS011;17168;49.164;9.060;2023-04-25T09:49:31;5.63;;;3.33;;
30378;SDS011;17168;49.164;9.060;2023-04-25T09:52:03;6.75;;;3.05;;
30378;SDS011;17168;49.164;9.060;2023-04-25T09:54:36;5.75;;;3.15;;
30378;SDS011;17168;49.164;9.060;2023-04-25T09:57:11;4.60;;;2.47;;
30378;SDS011;17168;49.164;9.060;2023-04-25T09:59:44;5.93;;;2.92;;
30378;SDS011;17168;49.164;9.060;2023-04-25T10:04:57;8.05;;;3.22;;
30378;SDS011;17168;49.164;9.060;2023-04-25T10:07:30;7.40;;;4.68;;
30378;SDS011;17168;49.164;9.060;2023-04-25T10:10:05;6.88;;;3.95;;
30378;SDS011;17168;49.164;9.060;2023-04-25T10:12:38;8.02;;;4.82;;
30378;SDS011;17168;49.164;9.060;2023-04-25T10:15:11;9.95;;;5.25;;
30378;SDS011;17168;49.164;9.060;2023-04-25T10:17:48;8.55;;;5.05;;
30378;SDS011;17168;49.164;9.060;2023-04-25T10:20:24;7.88;;;4.15;;
30378;SDS011;17168;49.164;9.060;2023-04-25T10:23:04;8.02;;;5.05;;
30378;SDS011;17168;49.164;9.060;2023-04-25T10:25:42;7.80;;;4.57;;
30378;SDS011;17168;49.164;9.060;2023-04-25T10:28:15;6.03;;;3.55;;
30378;SDS011;17168;49.164;9.060;2023-04-25T10:30:57;9.50;;;5.28;;
30378;SDS011;17168;49.164;9.060;2023-04-25T10:33:32;9.15;;;4.80;;
30378;SDS011;17168;49.164;9.060;2023-04-25T10:36:12;7.10;;;4.72;;
30378;SDS011;17168;49.164;9.060;2023-04-25T10:38:45;7.40;;;4.13;;
30378;SDS011;17168;49.164;9.060;2023-04-25T10:41:21;7.00;;;4.18;;
30378;SDS011;17168;49.164;9.060;2023-04-25T10:44:02;9.63;;;4.97;;
30378;SDS011;17168;49.164;9.060;2023-04-25T10:46:38;11.00;;;6.13;;
30378;SDS011;17168;49.164;9.060;2023-04-25T10:49:32;8.57;;;4.70;;
30378;SDS011;17168;49.164;9.060;2023-04-25T10:52:15;10.80;;;4.93;;
30378;SDS011;17168;49.164;9.060;2023-04-25T10:54:55;12.13;;;5.07;;
30378;SDS011;17168;49.164;9.060;2023-04-25T10:57:29;12.23;;;5.47;;
30378;SDS011;17168;49.164;9.060;2023-04-25T11:00:09;9.15;;;4.82;;
30378;SDS011;17168;49.164;9.060;2023-04-25T11:03:01;7.90;;;4.50;;
30378;SDS011;17168;49.164;9.060;2023-04-25T11:05:40;8.13;;;4.20;;
30378;SDS011;17168;49.164;9.060;2023-04-25T11:08:41;9.73;;;4.20;;
30378;SDS011;17168;49.164;9.060;2023-04-25T11:11:22;8.30;;;3.30;;
30378;SDS011;17168;49.164;9.060;2023-04-25T11:13:55;8.40;;;3.88;;
30378;SDS011;17168;49.164;9.060;2023-04-25T11:16:28;6.90;;;4.00;;
30378;SDS011;17168;49.164;9.060;2023-04-25T11:19:05;6.20;;;3.50;;
30378;SDS011;17168;49.164;9.060;2023-04-25T11:21:37;5.90;;;2.90;;
30378;SDS011;17168;49.164;9.060;2023-04-25T11:24:18;7.97;;;3.33;;
30378;SDS011;17168;49.164;9.060;2023-04-25T11:26:50;9.63;;;3.58;;
30378;SDS011;17168;49.164;9.060;2023-04-25T11:29:33;7.55;;;3.63;;
30378;SDS011;17168;49.164;9.060;2023-04-25T11:32:08;10.85;;;2.95;;
30378;SDS011;17168;49.164;9.060;2023-04-25T11:34:44;6.45;;;2.78;;
30378;SDS011;17168;49.164;9.060;2023-04-25T11:37:23;6.15;;;3.13;;
30378;SDS011;17168;49.164;9.060;2023-04-25T11:39:59;10.07;;;3.63;;
30378;SDS011;17168;49.164;9.060;2023-04-25T11:42:31;5.72;;;3.10;;
30378;SDS011;17168;49.164;9.060;2023-04-25T11:45:04;6.15;;;3.50;;
30378;SDS011;17168;49.164;9.060;2023-04-25T11:47:37;5.22;;;2.90;;
30378;SDS011;17168;49.164;9.060;2023-04-25T11:50:09;5.05;;;2.65;;
30378;SDS011;17168;49.164;9.060;2023-04-25T11:52:46;8.85;;;3.13;;
30378;SDS011;17168;49.164;9.060;2023-04-25T11:55:21;6.80;;;3.05;;
30378;SDS011;17168;49.164;9.060;2023-04-25T11:57:54;8.13;;;3.72;;
30378;SDS011;17168;49.164;9.060;2023-04-25T12:00:26;7.63;;;2.80;;
30378;SDS011;17168;49.164;9.060;2023-04-25T12:03:04;7.95;;;2.72;;
30378;SDS011;17168;49.164;9.060;2023-04-25T12:05:36;7.05;;;3.63;;
30378;SDS011;17168;49.164;9.060;2023-04-25T12:08:10;7.05;;;3.28;;
30378;SDS011;17168;49.164;9.060;2023-04-25T12:10:46;5.65;;;3.42;;
30378;SDS011;17168;49.164;9.060;2023-04-25T12:13:31;6.28;;;2.63;;
30378;SDS011;17168;49.164;9.060;2023-04-25T12:16:03;5.72;;;2.80;;
30378;SDS011;17168;49.164;9.060;2023-04-25T12:18:38;6.35;;;2.88;;
30378;SDS011;17168;49.164;9.060;2023-04-25T12:21:12;6.18;;;3.08;;
30378;SDS011;17168;49.164;9.060;2023-04-25T12:23:48;4.45;;;2.40;;
30378;SDS011;17168;49.164;9.060;2023-04-25T12:26:23;7.20;;;3.15;;
30378;SDS011;17168;49.164;9.060;2023-04-25T12:29:00;9.23;;;3.45;;
30378;SDS011;17168;49.164;9.060;2023-04-25T12:31:32;7.30;;;3.53;;
30378;SDS011;17168;49.164;9.060;2023-04-25T12:34:05;5.85;;;2.92;;
30378;SDS011;17168;49.164;9.060;2023-04-25T12:36:38;6.78;;;3.33;;
30378;SDS011;17168;49.164;9.060;2023-04-25T12:39:14;6.43;;;3.28;;
30378;SDS011;17168;49.164;9.060;2023-04-25T12:41:50;5.40;;;2.97;;
30378;SDS011;17168;49.164;9.060;2023-04-25T12:44:25;9.90;;;3.53;;
30378;SDS011;17168;49.164;9.060;2023-04-25T12:46:58;4.88;;;3.15;;
30378;SDS011;17168;49.164;9.060;2023-04-25T12:49:31;7.00;;;4.55;;
30378;SDS011;17168;49.164;9.060;2023-04-25T12:52:04;6.90;;;2.97;;
30378;SDS011;17168;49.164;9.060;2023-04-25T12:54:36;3.03;;;1.52;;
30378;SDS011;17168;49.164;9.060;2023-04-25T12:57:18;7.57;;;3.72;;
30378;SDS011;17168;49.164;9.060;2023-04-25T12:59:53;7.55;;;3.65;;
30378;SDS011;17168;49.164;9.060;2023-04-25T13:02:26;7.88;;;3.72;;
30378;SDS011;17168;49.164;9.060;2023-04-25T13:04:58;9.00;;;3.42;;
30378;SDS011;17168;49.164;9.060;2023-04-25T13:07:30;5.07;;;3.08;;
30378;SDS011;17168;49.164;9.060;2023-04-25T13:10:05;6.78;;;3.05;;
30378;SDS011;17168;49.164;9.060;2023-04-25T13:12:41;8.15;;;3.35;;
30378;SDS011;17168;49.164;9.060;2023-04-25T13:15:13;4.20;;;2.40;;
30378;SDS011;17168;49.164;9.060;2023-04-25T13:22:53;5.70;;;2.90;;
30378;SDS011;17168;49.164;9.060;2023-04-25T13:25:26;5.28;;;2.58;;
30378;SDS011;17168;49.164;9.060;2023-04-25T13:28:01;4.45;;;1.95;;
30378;SDS011;17168;49.164;9.060;2023-04-25T13:30:36;5.05;;;1.98;;
30378;SDS011;17168;49.164;9.060;2023-04-25T13:33:08;3.38;;;2.00;;
30378;SDS011;17168;49.164;9.060;2023-04-25T13:35:41;2.50;;;1.55;;
30378;SDS011;17168;49.164;9.060;2023-04-25T13:38:14;3.15;;;1.83;;
30378;SDS011;17168;49.164;9.060;2023-04-25T13:40:49;4.75;;;2.00;;
30378;SDS011;17168;49.164;9.060;2023-04-25T13:43:26;3.47;;;2.13;;
30378;SDS011;17168;49.164;9.060;2023-04-25T13:45:58;3.00;;;1.92;;
30378;SDS011;17168;49.164;9.060;2023-04-25T13:48:30;2.58;;;1.65;;
30378;SDS011;17168;49.164;9.060;2023-04-25T13:51:03;4.55;;;2.10;;
30378;SDS011;17168;49.164;9.060;2023-04-25T13:53:35;2.55;;;1.52;;
30378;SDS011;17168;49.164;9.060;2023-04-25T13:56:07;3.88;;;2.65;;
30378;SDS011;17168;49.164;9.060;2023-04-25T13:58:42;3.28;;;2.35;;
30378;SDS011;17168;49.164;9.060;2023-04-25T14:01:14;5.03;;;2.45;;
30378;SDS011;17168;49.164;9.060;2023-04-25T14:03:46;5.63;;;2.72;;
30378;SDS011;17168;49.164;9.060;2023-04-25T14:06:19;5.05;;;2.70;;
30378;SDS011;17168;49.164;9.060;2023-04-25T14:08:54;6.55;;;2.38;;
30378;SDS011;17168;49.164;9.060;2023-04-25T14:11:28;3.35;;;2.05;;
30378;SDS011;17168;49.164;9.060;2023-04-25T14:14:02;4.00;;;2.63;;
30378;SDS011;17168;49.164;9.060;2023-04-25T14:16:34;5.88;;;2.60;;
30378;SDS011;17168;49.164;9.060;2023-04-25T14:19:07;3.22;;;1.55;;
30378;SDS011;17168;49.164;9.060;2023-04-25T14:21:39;5.47;;;2.05;;
30378;SDS011;17168;49.164;9.060;2023-04-25T14:24:13;4.63;;;2.08;;
30378;SDS011;17168;49.164;9.060;2023-04-25T14:26:46;4.32;;;2.05;;
30378;SDS011;17168;49.164;9.060;2023-04-25T14:29:21;4.50;;;2.45;;
30378;SDS011;17168;49.164;9.060;2023-04-25T14:31:53;4.30;;;2.72;;
30378;SDS011;17168;49.164;9.060;2023-04-25T14:34:25;2.80;;;1.92;;
30378;SDS011;17168;49.164;9.060;2023-04-25T14:36:58;2.88;;;1.73;;
30378;SDS011;17168;49.164;9.060;2023-04-25T14:39:30;3.03;;;1.90;;
30378;SDS011;17168;49.164;9.060;2023-04-25T14:42:02;4.10;;;2.15;;
30378;SDS011;17168;49.164;9.060;2023-04-25T14:44:37;3.40;;;2.38;;
30378;SDS011;17168;49.164;9.060;2023-04-25T14:47:09;3.42;;;2.53;;
30378;SDS011;17168;49.164;9.060;2023-04-25T14:49:41;2.95;;;1.95;;
30378;SDS011;17168;49.164;9.060;2023-04-25T14:52:15;5.97;;;3.63;;
30378;SDS011;17168;49.164;9.060;2023-04-25T14:54:47;5.82;;;2.75;;
30378;SDS011;17168;49.164;9.060;2023-04-25T14:57:19;4.03;;;2.40;;
30378;SDS011;17168;49.164;9.060;2023-04-25T14:59:54;4.10;;;1.63;;
30378;SDS011;17168;49.164;9.060;2023-04-25T15:02:26;4.53;;;1.60;;
30378;SDS011;17168;49.164;9.060;2023-04-25T15:04:59;4.53;;;2.33;;
30378;SDS011;17168;49.164;9.060;2023-04-25T15:07:31;5.47;;;1.95;;
30378;SDS011;17168;49.164;9.060;2023-04-25T15:10:09;5.35;;;2.33;;
30378;SDS011;17168;49.164;9.060;2023-04-25T15:12:47;4.93;;;3.03;;
30378;SDS011;17168;49.164;9.060;2023-04-25T15:15:22;4.93;;;2.53;;
30378;SDS011;17168;49.164;9.060;2023-04-25T15:17:57;4.32;;;1.92;;
30378;SDS011;17168;49.164;9.060;2023-04-25T15:20:31;4.05;;;1.95;;
30378;SDS011;17168;49.164;9.060;2023-04-25T15:23:03;6.18;;;2.25;;
30378;SDS011;17168;49.164;9.060;2023-04-25T15:25:37;17.27;;;8.02;;
30378;SDS011;17168;49.164;9.060;2023-04-25T15:28:09;14.90;;;7.22;;
30378;SDS011;17168;49.164;9.060;2023-04-25T15:30:44;3.45;;;2.03;;
30378;SDS011;17168;49.164;9.060;2023-04-25T15:33:16;4.72;;;2.15;;